sensor_id;sensor_type;location;lat;lon;timestamp;P1;durP1;ratioP1;P2;durP2;ratioP2
26774;SDS011;14362;51.902;7.626;2023-04-01T00:01:26;3.67;;;2.17;;
26774;SDS011;14362;51.902;7.626;2023-04-01T00:05:28;5.97;;;1.95;;
26774;SDS011;14362;51.902;7.626;2023-04-01T00:09:30;7.68;;;2.40;;
26774;SDS011;14362;51.902;7.626;2023-04-01T00:13:31;6.72;;;2.15;;
26774;SDS011;14362;51.902;7.626;2023-04-01T00:17:34;6.60;;;2.53;;
26774;SDS011;14362;51.902;7.626;2023-04-01T00:21:36;5.13;;;2.13;;
26774;SDS011;14362;51.902;7.626;2023-04-01T00:25:37;9.38;;;2.38;;
26774;SDS011;14362;51.902;7.626;2023-04-01T00:29:41;5.18;;;2.17;;
26774;SDS011;14362;51.902;7.626;2023-04-01T00:33:44;5.05;;;2.10;;
26774;SDS011;14362;51.902;7.626;2023-04-01T00:37:45;4.22;;;1.92;;
26774;SDS011;14362;51.902;7.626;2023-04-01T00:41:47;3.38;;;1.85;;
26774;SDS011;14362;51.902;7.626;2023-04-01T00:45:49;3.08;;;2.10;;
26774;SDS011;14362;51.902;7.626;2023-04-01T00:49:52;4.07;;;2.00;;
26774;SDS011;14362;51.902;7.626;2023-04-01T00:53:56;2.28;;;1.70;;
26774;SDS011;14362;51.902;7.626;2023-04-01T00:58:01;3.38;;;1.80;;
26774;SDS011;14362;51.902;7.626;2023-04-01T01:02:07;3.20;;;1.83;;
26774;SDS011;14362;51.902;7.626;2023-04-01T01:06:14;4.40;;;2.20;;
26774;SDS011;14362;51.902;7.626;2023-04-01T01:10:26;4.00;;;2.00;;
26774;SDS011;14362;51.902;7.626;2023-04-01T01:14:34;3.03;;;2.33;;
26774;SDS011;14362;51.902;7.626;2023-04-01T01:18:43;4.78;;;2.35;;
26774;SDS011;14362;51.902;7.626;2023-04-01T01:23:02;3.05;;;2.22;;
26774;SDS011;14362;51.902;7.626;2023-04-01T01:27:23;5.03;;;2.25;;
26774;SDS011;14362;51.902;7.626;2023-04-01T01:31:26;5.65;;;2.42;;
26774;SDS011;14362;51.902;7.626;2023-04-01T01:35:35;4.18;;;2.20;;
26774;SDS011;14362;51.902;7.626;2023-04-01T01:39:39;3.28;;;2.75;;
26774;SDS011;14362;51.902;7.626;2023-04-01T01:43:43;3.57;;;2.47;;
26774;SDS011;14362;51.902;7.626;2023-04-01T01:47:48;3.72;;;2.95;;
26774;SDS011;14362;51.902;7.626;2023-04-01T01:51:53;4.22;;;2.50;;
26774;SDS011;14362;51.902;7.626;2023-04-01T01:55:55;4.65;;;2.40;;
26774;SDS011;14362;51.902;7.626;2023-04-01T01:59:58;3.70;;;2.50;;
26774;SDS011;14362;51.902;7.626;2023-04-01T02:04:03;5.15;;;2.55;;
26774;SDS011;14362;51.902;7.626;2023-04-01T02:08:07;4.13;;;2.40;;
26774;SDS011;14362;51.902;7.626;2023-04-01T02:12:13;3.78;;;2.55;;
26774;SDS011;14362;51.902;7.626;2023-04-01T02:16:18;3.85;;;2.30;;
26774;SDS011;14362;51.902;7.626;2023-04-01T02:20:24;5.93;;;3.05;;
26774;SDS011;14362;51.902;7.626;2023-04-01T02:24:30;3.75;;;2.53;;
26774;SDS011;14362;51.902;7.626;2023-04-01T02:28:36;4.93;;;2.33;;
26774;SDS011;14362;51.902;7.626;2023-04-01T02:32:40;4.88;;;3.20;;
26774;SDS011;14362;51.902;7.626;2023-04-01T02:36:42;3.22;;;2.60;;
26774;SDS011;14362;51.902;7.626;2023-04-01T02:40:47;4.70;;;2.65;;
26774;SDS011;14362;51.902;7.626;2023-04-01T02:44:50;2.92;;;2.38;;
26774;SDS011;14362;51.902;7.626;2023-04-01T02:48:52;2.28;;;2.08;;
26774;SDS011;14362;51.902;7.626;2023-04-01T02:52:54;2.95;;;2.15;;
26774;SDS011;14362;51.902;7.626;2023-04-01T02:56:57;4.28;;;2.42;;
26774;SDS011;14362;51.902;7.626;2023-04-01T03:00:58;3.72;;;2.20;;
26774;SDS011;14362;51.902;7.626;2023-04-01T03:05:00;3.53;;;2.72;;
26774;SDS011;14362;51.902;7.626;2023-04-01T03:09:01;5.22;;;2.78;;
26774;SDS011;14362;51.902;7.626;2023-04-01T03:13:05;4.63;;;2.90;;
26774;SDS011;14362;51.902;7.626;2023-04-01T03:17:06;3.30;;;2.80;;
26774;SDS011;14362;51.902;7.626;2023-04-01T03:21:14;4.07;;;3.10;;
26774;SDS011;14362;51.902;7.626;2023-04-01T03:25:17;4.43;;;2.63;;
26774;SDS011;14362;51.902;7.626;2023-04-01T03:29:20;4.57;;;2.83;;
26774;SDS011;14362;51.902;7.626;2023-04-01T03:33:22;4.57;;;3.00;;
26774;SDS011;14362;51.902;7.626;2023-04-01T03:37:23;4.75;;;2.90;;
26774;SDS011;14362;51.902;7.626;2023-04-01T03:41:25;4.25;;;2.72;;
26774;SDS011;14362;51.902;7.626;2023-04-01T03:45:28;4.32;;;3.00;;
26774;SDS011;14362;51.902;7.626;2023-04-01T03:49:29;3.95;;;2.92;;
26774;SDS011;14362;51.902;7.626;2023-04-01T03:53:32;5.20;;;3.15;;
26774;SDS011;14362;51.902;7.626;2023-04-01T03:57:33;6.00;;;3.25;;
26774;SDS011;14362;51.902;7.626;2023-04-01T04:01:36;6.53;;;3.38;;
26774;SDS011;14362;51.902;7.626;2023-04-01T04:05:37;5.05;;;3.13;;
26774;SDS011;14362;51.902;7.626;2023-04-01T04:09:46;5.05;;;3.38;;
26774;SDS011;14362;51.902;7.626;2023-04-01T04:13:47;3.10;;;2.80;;
26774;SDS011;14362;51.902;7.626;2023-04-01T04:17:50;3.45;;;3.15;;
26774;SDS011;14362;51.902;7.626;2023-04-01T04:21:52;3.40;;;2.92;;
26774;SDS011;14362;51.902;7.626;2023-04-01T04:25:54;3.97;;;2.78;;
26774;SDS011;14362;51.902;7.626;2023-04-01T04:29:57;6.35;;;2.88;;
26774;SDS011;14362;51.902;7.626;2023-04-01T04:33:59;3.83;;;2.65;;
26774;SDS011;14362;51.902;7.626;2023-04-01T04:38:01;3.30;;;3.00;;
26774;SDS011;14362;51.902;7.626;2023-04-01T04:42:03;4.45;;;2.63;;
26774;SDS011;14362;51.902;7.626;2023-04-01T04:46:05;7.13;;;2.72;;
26774;SDS011;14362;51.902;7.626;2023-04-01T04:50:08;3.13;;;2.00;;
26774;SDS011;14362;51.902;7.626;2023-04-01T04:54:11;3.33;;;1.70;;
26774;SDS011;14362;51.902;7.626;2023-04-01T04:58:13;3.38;;;2.38;;
26774;SDS011;14362;51.902;7.626;2023-04-01T05:02:14;2.40;;;2.20;;
26774;SDS011;14362;51.902;7.626;2023-04-01T05:06:17;2.05;;;1.85;;
26774;SDS011;14362;51.902;7.626;2023-04-01T05:10:19;2.42;;;1.70;;
26774;SDS011;14362;51.902;7.626;2023-04-01T05:14:21;3.88;;;2.80;;
26774;SDS011;14362;51.902;7.626;2023-04-01T05:18:23;2.88;;;2.28;;
26774;SDS011;14362;51.902;7.626;2023-04-01T05:22:25;2.70;;;2.50;;
26774;SDS011;14362;51.902;7.626;2023-04-01T05:26:27;4.47;;;2.58;;
26774;SDS011;14362;51.902;7.626;2023-04-01T05:30:28;2.95;;;2.50;;
26774;SDS011;14362;51.902;7.626;2023-04-01T05:34:30;4.68;;;2.70;;
26774;SDS011;14362;51.902;7.626;2023-04-01T05:38:32;3.85;;;2.60;;
26774;SDS011;14362;51.902;7.626;2023-04-01T05:42:34;4.20;;;3.70;;
26774;SDS011;14362;51.902;7.626;2023-04-01T05:46:35;4.55;;;3.53;;
26774;SDS011;14362;51.902;7.626;2023-04-01T05:50:37;5.43;;;4.63;;
26774;SDS011;14362;51.902;7.626;2023-04-01T05:54:42;4.68;;;4.25;;
26774;SDS011;14362;51.902;7.626;2023-04-01T05:58:43;5.35;;;4.82;;
26774;SDS011;14362;51.902;7.626;2023-04-01T06:02:51;6.82;;;6.18;;
26774;SDS011;14362;51.902;7.626;2023-04-01T06:06:52;7.10;;;6.40;;
26774;SDS011;14362;51.902;7.626;2023-04-01T06:15:25;7.15;;;6.45;;
26774;SDS011;14362;51.902;7.626;2023-04-01T06:19:36;9.10;;;7.38;;
26774;SDS011;14362;51.902;7.626;2023-04-01T06:23:49;7.10;;;6.40;;
26774;SDS011;14362;51.902;7.626;2023-04-01T06:28:07;7.53;;;6.63;;
26774;SDS011;14362;51.902;7.626;2023-04-01T06:36:54;7.23;;;6.50;;
26774;SDS011;14362;51.902;7.626;2023-04-01T06:41:14;7.05;;;5.97;;
26774;SDS011;14362;51.902;7.626;2023-04-01T06:45:45;7.18;;;6.47;;
26774;SDS011;14362;51.902;7.626;2023-04-01T06:49:55;7.78;;;6.97;;
26774;SDS011;14362;51.902;7.626;2023-04-01T06:54:01;7.53;;;6.78;;
26774;SDS011;14362;51.902;7.626;2023-04-01T06:58:10;10.52;;;7.20;;
26774;SDS011;14362;51.902;7.626;2023-04-01T07:02:22;7.78;;;6.70;;
26774;SDS011;14362;51.902;7.626;2023-04-01T07:06:28;8.30;;;6.55;;
26774;SDS011;14362;51.902;7.626;2023-04-01T07:10:34;7.15;;;6.50;;
26774;SDS011;14362;51.902;7.626;2023-04-01T07:14:43;9.50;;;5.85;;
26774;SDS011;14362;51.902;7.626;2023-04-01T07:18:49;6.68;;;5.40;;
26774;SDS011;14362;51.902;7.626;2023-04-01T07:22:56;5.90;;;5.38;;
26774;SDS011;14362;51.902;7.626;2023-04-01T07:27:00;5.85;;;5.13;;
26774;SDS011;14362;51.902;7.626;2023-04-01T07:31:05;5.88;;;4.75;;
26774;SDS011;14362;51.902;7.626;2023-04-01T07:35:20;5.43;;;4.90;;
26774;SDS011;14362;51.902;7.626;2023-04-01T07:39:28;5.22;;;4.82;;
26774;SDS011;14362;51.902;7.626;2023-04-01T07:43:41;4.78;;;4.38;;
26774;SDS011;14362;51.902;7.626;2023-04-01T07:47:55;5.00;;;4.50;;
26774;SDS011;14362;51.902;7.626;2023-04-01T07:52:09;4.70;;;4.30;;
26774;SDS011;14362;51.902;7.626;2023-04-01T07:56:17;5.40;;;4.90;;
26774;SDS011;14362;51.902;7.626;2023-04-01T08:00:24;5.20;;;4.80;;
26774;SDS011;14362;51.902;7.626;2023-04-01T08:04:33;5.43;;;4.93;;
26774;SDS011;14362;51.902;7.626;2023-04-01T08:08:51;8.57;;;6.32;;
26774;SDS011;14362;51.902;7.626;2023-04-01T08:13:03;5.65;;;5.15;;
26774;SDS011;14362;51.902;7.626;2023-04-01T08:17:13;5.63;;;5.22;;
26774;SDS011;14362;51.902;7.626;2023-04-01T08:21:22;5.60;;;5.20;;
26774;SDS011;14362;51.902;7.626;2023-04-01T08:25:28;5.65;;;5.15;;
26774;SDS011;14362;51.902;7.626;2023-04-01T08:33:35;5.30;;;4.60;;
26774;SDS011;14362;51.902;7.626;2023-04-01T08:37:39;4.20;;;3.90;;
26774;SDS011;14362;51.902;7.626;2023-04-01T08:41:53;4.55;;;4.18;;
26774;SDS011;14362;51.902;7.626;2023-04-01T08:46:07;4.85;;;4.18;;
26774;SDS011;14362;51.902;7.626;2023-04-01T08:50:31;5.60;;;5.10;;
26774;SDS011;14362;51.902;7.626;2023-04-01T08:54:54;5.40;;;4.95;;
26774;SDS011;14362;51.902;7.626;2023-04-01T08:59:13;5.35;;;4.85;;
26774;SDS011;14362;51.902;7.626;2023-04-01T09:03:35;5.35;;;4.95;;
26774;SDS011;14362;51.902;7.626;2023-04-01T09:07:45;5.03;;;4.63;;
26774;SDS011;14362;51.902;7.626;2023-04-01T09:12:06;5.57;;;5.07;;
26774;SDS011;14362;51.902;7.626;2023-04-01T09:16:38;6.03;;;5.45;;
26774;SDS011;14362;51.902;7.626;2023-04-01T09:20:58;6.10;;;5.53;;
26774;SDS011;14362;51.902;7.626;2023-04-01T09:30:10;5.78;;;5.28;;
26774;SDS011;14362;51.902;7.626;2023-04-01T09:34:40;4.70;;;4.35;;
26774;SDS011;14362;51.902;7.626;2023-04-01T09:38:56;5.22;;;4.40;;
26774;SDS011;14362;51.902;7.626;2023-04-01T09:43:16;4.75;;;4.35;;
26774;SDS011;14362;51.902;7.626;2023-04-01T09:47:29;4.82;;;4.40;;
26774;SDS011;14362;51.902;7.626;2023-04-01T09:51:48;4.60;;;4.20;;
26774;SDS011;14362;51.902;7.626;2023-04-01T10:00:46;4.95;;;4.55;;
26774;SDS011;14362;51.902;7.626;2023-04-01T10:05:25;5.28;;;4.18;;
26774;SDS011;14362;51.902;7.626;2023-04-01T10:09:54;4.57;;;4.18;;
26774;SDS011;14362;51.902;7.626;2023-04-01T10:14:24;4.78;;;4.10;;
26774;SDS011;14362;51.902;7.626;2023-04-01T10:19:01;5.10;;;4.70;;
26774;SDS011;14362;51.902;7.626;2023-04-01T10:27:51;4.90;;;4.53;;
26774;SDS011;14362;51.902;7.626;2023-04-01T10:36:50;5.60;;;5.20;;
26774;SDS011;14362;51.902;7.626;2023-04-01T10:41:01;4.93;;;4.53;;
26774;SDS011;14362;51.902;7.626;2023-04-01T10:49:41;3.90;;;3.60;;
26774;SDS011;14362;51.902;7.626;2023-04-01T10:54:00;3.10;;;2.90;;
26774;SDS011;14362;51.902;7.626;2023-04-01T10:58:36;3.20;;;3.00;;
26774;SDS011;14362;51.902;7.626;2023-04-01T11:03:20;2.72;;;2.55;;
26774;SDS011;14362;51.902;7.626;2023-04-01T11:12:37;3.42;;;3.17;;
26774;SDS011;14362;51.902;7.626;2023-04-01T11:17:15;3.08;;;2.78;;
26774;SDS011;14362;51.902;7.626;2023-04-01T11:21:48;3.35;;;3.15;;
26774;SDS011;14362;51.902;7.626;2023-04-01T11:26:02;3.75;;;3.50;;
26774;SDS011;14362;51.902;7.626;2023-04-01T11:30:12;3.80;;;3.50;;
26774;SDS011;14362;51.902;7.626;2023-04-01T11:34:27;4.97;;;4.57;;
26774;SDS011;14362;51.902;7.626;2023-04-01T11:38:48;4.72;;;4.43;;
26774;SDS011;14362;51.902;7.626;2023-04-01T11:42:58;4.90;;;4.53;;
26774;SDS011;14362;51.902;7.626;2023-04-01T11:47:10;5.47;;;4.97;;
26774;SDS011;14362;51.902;7.626;2023-04-01T11:51:24;5.82;;;5.38;;
26774;SDS011;14362;51.902;7.626;2023-04-01T11:55:44;4.95;;;4.55;;
26774;SDS011;14362;51.902;7.626;2023-04-01T11:59:54;4.10;;;3.80;;
26774;SDS011;14362;51.902;7.626;2023-04-01T12:04:12;3.72;;;3.42;;
26774;SDS011;14362;51.902;7.626;2023-04-01T12:08:40;2.80;;;2.60;;
26774;SDS011;14362;51.902;7.626;2023-04-01T12:12:57;3.35;;;2.80;;
26774;SDS011;14362;51.902;7.626;2023-04-01T12:17:04;4.30;;;3.90;;
26774;SDS011;14362;51.902;7.626;2023-04-01T12:21:14;3.30;;;3.00;;
26774;SDS011;14362;51.902;7.626;2023-04-01T12:25:25;3.50;;;3.20;;
26774;SDS011;14362;51.902;7.626;2023-04-01T12:34:31;6.43;;;5.47;;
26774;SDS011;14362;51.902;7.626;2023-04-01T12:38:48;6.47;;;4.88;;
26774;SDS011;14362;51.902;7.626;2023-04-01T12:43:15;5.97;;;4.93;;
26774;SDS011;14362;51.902;7.626;2023-04-01T12:47:35;5.28;;;4.78;;
26774;SDS011;14362;51.902;7.626;2023-04-01T12:51:53;5.40;;;4.90;;
26774;SDS011;14362;51.902;7.626;2023-04-01T12:56:09;6.03;;;5.43;;
26774;SDS011;14362;51.902;7.626;2023-04-01T13:00:30;4.73;;;4.33;;
26774;SDS011;14362;51.902;7.626;2023-04-01T13:04:47;4.95;;;4.47;;
26774;SDS011;14362;51.902;7.626;2023-04-01T13:09:06;5.05;;;4.63;;
26774;SDS011;14362;51.902;7.626;2023-04-01T13:17:38;3.47;;;3.17;;
26774;SDS011;14362;51.902;7.626;2023-04-01T13:21:50;3.05;;;2.83;;
26774;SDS011;14362;51.902;7.626;2023-04-01T13:26:02;3.23;;;2.93;;
26774;SDS011;14362;51.902;7.626;2023-04-01T13:30:18;3.40;;;3.10;;
26774;SDS011;14362;51.902;7.626;2023-04-01T13:34:29;4.70;;;3.83;;
26774;SDS011;14362;51.902;7.626;2023-04-01T13:38:45;4.37;;;3.67;;
26774;SDS011;14362;51.902;7.626;2023-04-01T13:42:59;4.32;;;3.85;;
26774;SDS011;14362;51.902;7.626;2023-04-01T13:47:11;3.75;;;3.45;;
26774;SDS011;14362;51.902;7.626;2023-04-01T13:55:57;5.18;;;4.55;;
26774;SDS011;14362;51.902;7.626;2023-04-01T14:00:23;4.13;;;3.25;;
26774;SDS011;14362;51.902;7.626;2023-04-01T14:04:37;2.75;;;2.55;;
26774;SDS011;14362;51.902;7.626;2023-04-01T14:13:06;2.28;;;2.05;;
26774;SDS011;14362;51.902;7.626;2023-04-01T14:21:50;3.13;;;2.53;;
26774;SDS011;14362;51.902;7.626;2023-04-01T14:30:42;2.67;;;2.42;;
26774;SDS011;14362;51.902;7.626;2023-04-01T14:34:55;2.40;;;2.20;;
26774;SDS011;14362;51.902;7.626;2023-04-01T14:39:10;2.60;;;2.40;;
26774;SDS011;14362;51.902;7.626;2023-04-01T14:43:28;2.83;;;2.60;;
26774;SDS011;14362;51.902;7.626;2023-04-01T14:47:52;3.47;;;3.17;;
26774;SDS011;14362;51.902;7.626;2023-04-01T14:51:57;3.80;;;3.40;;
26774;SDS011;14362;51.902;7.626;2023-04-01T14:56:09;3.28;;;3.05;;
26774;SDS011;14362;51.902;7.626;2023-04-01T15:00:12;3.13;;;2.85;;
26774;SDS011;14362;51.902;7.626;2023-04-01T15:04:22;2.58;;;2.38;;
26774;SDS011;14362;51.902;7.626;2023-04-01T15:08:36;2.03;;;1.80;;
26774;SDS011;14362;51.902;7.626;2023-04-01T15:12:50;3.45;;;2.10;;
26774;SDS011;14362;51.902;7.626;2023-04-01T15:17:01;2.60;;;2.40;;
26774;SDS011;14362;51.902;7.626;2023-04-01T15:21:27;2.63;;;2.42;;
26774;SDS011;14362;51.902;7.626;2023-04-01T15:25:43;2.53;;;2.20;;
26774;SDS011;14362;51.902;7.626;2023-04-01T15:30:02;2.40;;;2.20;;
26774;SDS011;14362;51.902;7.626;2023-04-01T15:34:21;2.80;;;2.60;;
26774;SDS011;14362;51.902;7.626;2023-04-01T15:38:34;3.05;;;2.20;;
26774;SDS011;14362;51.902;7.626;2023-04-01T15:42:43;2.80;;;2.60;;
26774;SDS011;14362;51.902;7.626;2023-04-01T15:46:55;3.75;;;3.45;;
26774;SDS011;14362;51.902;7.626;2023-04-01T15:51:01;3.58;;;3.20;;
26774;SDS011;14362;51.902;7.626;2023-04-01T15:55:16;3.50;;;3.05;;
26774;SDS011;14362;51.902;7.626;2023-04-01T15:59:36;3.38;;;3.08;;
26774;SDS011;14362;51.902;7.626;2023-04-01T16:03:52;4.30;;;3.20;;
26774;SDS011;14362;51.902;7.626;2023-04-01T16:08:14;2.97;;;2.13;;
26774;SDS011;14362;51.902;7.626;2023-04-01T16:12:29;3.38;;;3.10;;
26774;SDS011;14362;51.902;7.626;2023-04-01T16:16:50;3.55;;;3.25;;
26774;SDS011;14362;51.902;7.626;2023-04-01T16:21:00;3.38;;;3.08;;
26774;SDS011;14362;51.902;7.626;2023-04-01T16:25:14;2.90;;;2.70;;
26774;SDS011;14362;51.902;7.626;2023-04-01T16:29:30;3.78;;;3.40;;
26774;SDS011;14362;51.902;7.626;2023-04-01T16:33:40;3.83;;;3.53;;
26774;SDS011;14362;51.902;7.626;2023-04-01T16:37:49;4.53;;;4.22;;
26774;SDS011;14362;51.902;7.626;2023-04-01T16:41:57;5.53;;;4.55;;
26774;SDS011;14362;51.902;7.626;2023-04-01T16:50:42;5.65;;;5.07;;
26774;SDS011;14362;51.902;7.626;2023-04-01T16:54:51;5.20;;;4.70;;
26774;SDS011;14362;51.902;7.626;2023-04-01T16:58:59;4.68;;;4.28;;
26774;SDS011;14362;51.902;7.626;2023-04-01T17:03:13;3.38;;;3.08;;
26774;SDS011;14362;51.902;7.626;2023-04-01T17:07:22;2.65;;;2.45;;
26774;SDS011;14362;51.902;7.626;2023-04-01T17:11:33;2.10;;;1.90;;
26774;SDS011;14362;51.902;7.626;2023-04-01T17:15:42;1.77;;;1.67;;
26774;SDS011;14362;51.902;7.626;2023-04-01T17:19:56;3.05;;;1.95;;
26774;SDS011;14362;51.902;7.626;2023-04-01T17:24:15;2.78;;;2.20;;
26774;SDS011;14362;51.902;7.626;2023-04-01T17:28:31;2.28;;;2.08;;
26774;SDS011;14362;51.902;7.626;2023-04-01T17:32:40;2.03;;;1.70;;
26774;SDS011;14362;51.902;7.626;2023-04-01T17:36:55;1.60;;;1.50;;
26774;SDS011;14362;51.902;7.626;2023-04-01T17:41:08;1.60;;;1.20;;
26774;SDS011;14362;51.902;7.626;2023-04-01T17:45:20;1.90;;;1.25;;
26774;SDS011;14362;51.902;7.626;2023-04-01T17:49:26;1.48;;;1.20;;
26774;SDS011;14362;51.902;7.626;2023-04-01T17:53:37;1.52;;;1.27;;
26774;SDS011;14362;51.902;7.626;2023-04-01T17:57:46;1.48;;;1.38;;
26774;SDS011;14362;51.902;7.626;2023-04-01T18:01:54;1.50;;;1.40;;
26774;SDS011;14362;51.902;7.626;2023-04-01T18:06:03;1.98;;;1.88;;
26774;SDS011;14362;51.902;7.626;2023-04-01T18:10:13;1.95;;;1.80;;
26774;SDS011;14362;51.902;7.626;2023-04-01T18:14:27;4.05;;;2.78;;
26774;SDS011;14362;51.902;7.626;2023-04-01T18:18:54;2.33;;;2.13;;
26774;SDS011;14362;51.902;7.626;2023-04-01T18:23:03;2.60;;;2.40;;
26774;SDS011;14362;51.902;7.626;2023-04-01T18:27:17;2.35;;;2.15;;
26774;SDS011;14362;51.902;7.626;2023-04-01T18:31:24;2.10;;;1.90;;
26774;SDS011;14362;51.902;7.626;2023-04-01T18:35:29;1.83;;;1.67;;
26774;SDS011;14362;51.902;7.626;2023-04-01T18:39:46;2.95;;;1.80;;
26774;SDS011;14362;51.902;7.626;2023-04-01T18:43:53;3.20;;;1.60;;
26774;SDS011;14362;51.902;7.626;2023-04-01T18:48:08;1.63;;;1.52;;
26774;SDS011;14362;51.902;7.626;2023-04-01T18:52:17;1.67;;;1.58;;
26774;SDS011;14362;51.902;7.626;2023-04-01T18:56:24;1.63;;;1.52;;
26774;SDS011;14362;51.902;7.626;2023-04-01T19:00:34;2.22;;;1.98;;
26774;SDS011;14362;51.902;7.626;2023-04-01T19:04:41;2.13;;;1.90;;
26774;SDS011;14362;51.902;7.626;2023-04-01T19:08:46;2.20;;;2.00;;
26774;SDS011;14362;51.902;7.626;2023-04-01T19:17:16;1.88;;;1.77;;
26774;SDS011;14362;51.902;7.626;2023-04-01T19:21:26;1.83;;;1.65;;
26774;SDS011;14362;51.902;7.626;2023-04-01T19:25:35;1.80;;;1.70;;
26774;SDS011;14362;51.902;7.626;2023-04-01T19:29:43;1.95;;;1.75;;
26774;SDS011;14362;51.902;7.626;2023-04-01T19:33:58;2.15;;;1.95;;
26774;SDS011;14362;51.902;7.626;2023-04-01T19:42:18;2.30;;;2.00;;
26774;SDS011;14362;51.902;7.626;2023-04-01T19:46:26;2.00;;;1.80;;
26774;SDS011;14362;51.902;7.626;2023-04-01T19:50:35;4.28;;;1.85;;
26774;SDS011;14362;51.902;7.626;2023-04-01T19:54:41;2.50;;;2.30;;
26774;SDS011;14362;51.902;7.626;2023-04-01T19:58:50;3.22;;;2.13;;
26774;SDS011;14362;51.902;7.626;2023-04-01T20:03:01;2.38;;;2.17;;
26774;SDS011;14362;51.902;7.626;2023-04-01T20:07:09;2.40;;;2.20;;
26774;SDS011;14362;51.902;7.626;2023-04-01T20:11:27;2.13;;;1.80;;
26774;SDS011;14362;51.902;7.626;2023-04-01T20:15:37;2.53;;;2.30;;
26774;SDS011;14362;51.902;7.626;2023-04-01T20:23:47;2.05;;;1.85;;
26774;SDS011;14362;51.902;7.626;2023-04-01T20:27:56;1.92;;;1.83;;
26774;SDS011;14362;51.902;7.626;2023-04-01T20:32:04;2.45;;;2.25;;
26774;SDS011;14362;51.902;7.626;2023-04-01T20:36:14;2.20;;;2.00;;
26774;SDS011;14362;51.902;7.626;2023-04-01T20:40:33;2.42;;;2.22;;
26774;SDS011;14362;51.902;7.626;2023-04-01T20:44:37;2.50;;;2.30;;
26774;SDS011;14362;51.902;7.626;2023-04-01T20:48:51;1.90;;;1.80;;
26774;SDS011;14362;51.902;7.626;2023-04-01T20:53:11;2.30;;;2.10;;
26774;SDS011;14362;51.902;7.626;2023-04-01T20:57:18;2.30;;;1.77;;
26774;SDS011;14362;51.902;7.626;2023-04-01T21:01:25;2.42;;;2.05;;
26774;SDS011;14362;51.902;7.626;2023-04-01T21:05:57;2.17;;;1.98;;
26774;SDS011;14362;51.902;7.626;2023-04-01T21:10:12;2.17;;;1.98;;
26774;SDS011;14362;51.902;7.626;2023-04-01T21:14:31;2.58;;;2.08;;
26774;SDS011;14362;51.902;7.626;2023-04-01T21:23:22;2.75;;;2.50;;
26774;SDS011;14362;51.902;7.626;2023-04-01T21:27:42;7.72;;;2.60;;
26774;SDS011;14362;51.902;7.626;2023-04-01T21:32:01;2.10;;;1.90;;
26774;SDS011;14362;51.902;7.626;2023-04-01T21:36:17;2.70;;;2.40;;
26774;SDS011;14362;51.902;7.626;2023-04-01T21:45:11;2.65;;;2.45;;
26774;SDS011;14362;51.902;7.626;2023-04-01T21:49:41;2.95;;;2.65;;
26774;SDS011;14362;51.902;7.626;2023-04-01T22:07:50;11.52;;;2.35;;
26774;SDS011;14362;51.902;7.626;2023-04-01T22:12:01;1.98;;;1.77;;
26774;SDS011;14362;51.902;7.626;2023-04-01T22:16:09;2.38;;;1.90;;
26774;SDS011;14362;51.902;7.626;2023-04-01T22:20:18;3.97;;;1.83;;
26774;SDS011;14362;51.902;7.626;2023-04-01T22:24:28;2.38;;;2.10;;
26774;SDS011;14362;51.902;7.626;2023-04-01T22:28:43;1.88;;;1.77;;
26774;SDS011;14362;51.902;7.626;2023-04-01T22:32:52;2.05;;;1.90;;
26774;SDS011;14362;51.902;7.626;2023-04-01T22:37:03;2.00;;;1.80;;
26774;SDS011;14362;51.902;7.626;2023-04-01T22:41:17;2.60;;;1.80;;
26774;SDS011;14362;51.902;7.626;2023-04-01T22:45:37;1.83;;;1.58;;
26774;SDS011;14362;51.902;7.626;2023-04-01T22:49:50;4.78;;;1.80;;
26774;SDS011;14362;51.902;7.626;2023-04-01T22:54:01;2.17;;;1.98;;
26774;SDS011;14362;51.902;7.626;2023-04-01T22:58:09;1.90;;;1.50;;
26774;SDS011;14362;51.902;7.626;2023-04-01T23:02:15;3.10;;;2.83;;
26774;SDS011;14362;51.902;7.626;2023-04-01T23:06:22;1.65;;;1.55;;
26774;SDS011;14362;51.902;7.626;2023-04-01T23:10:29;1.85;;;1.75;;
26774;SDS011;14362;51.902;7.626;2023-04-01T23:14:45;1.88;;;1.60;;
26774;SDS011;14362;51.902;7.626;2023-04-01T23:18:50;1.73;;;1.48;;
26774;SDS011;14362;51.902;7.626;2023-04-01T23:23:08;4.07;;;2.20;;
26774;SDS011;14362;51.902;7.626;2023-04-01T23:27:20;2.95;;;1.83;;
26774;SDS011;14362;51.902;7.626;2023-04-01T23:31:36;2.40;;;2.00;;
26774;SDS011;14362;51.902;7.626;2023-04-01T23:35:46;5.45;;;2.33;;
26774;SDS011;14362;51.902;7.626;2023-04-01T23:39:48;2.58;;;2.03;;
26774;SDS011;14362;51.902;7.626;2023-04-01T23:43:52;3.90;;;2.40;;
26774;SDS011;14362;51.902;7.626;2023-04-01T23:47:58;3.53;;;2.60;;
26774;SDS011;14362;51.902;7.626;2023-04-01T23:52:02;4.05;;;2.70;;
26774;SDS011;14362;51.902;7.626;2023-04-01T23:56:09;2.88;;;2.63;;
